createdAt,value
2018-12-25T00:00:19.207Z,103111.52
2018-12-25T00:02:47.476Z,103112.14
2018-12-25T00:05:15.720Z,103105.71
2018-12-25T00:07:44.171Z,103105.71
2018-12-25T00:10:12.440Z,103110.69
2018-12-25T00:12:40.732Z,103095.91
2018-12-25T00:15:09.000Z,103102.09
2018-12-25T00:17:37.231Z,103106.34
2018-12-25T00:20:05.550Z,103100.44
2018-12-25T00:22:33.831Z,103102.91
2018-12-25T00:25:02.081Z,103104.87
2018-12-25T00:27:30.424Z,103103.01
2018-12-25T00:29:59.536Z,103106.85
2018-12-25T00:32:27.795Z,103108.26
2018-12-25T00:34:56.070Z,103103.20
2018-12-25T00:37:24.352Z,103097.61
2018-12-25T00:39:52.624Z,103097.92
2018-12-25T00:42:20.899Z,103103.30
2018-12-25T00:44:49.151Z,103103.08
2018-12-25T00:47:17.791Z,103092.34
2018-12-25T00:49:46.110Z,103096.09
2018-12-25T00:52:14.349Z,103086.75
2018-12-25T00:54:42.643Z,103086.75
2018-12-25T00:57:10.940Z,103086.84
2018-12-25T00:59:39.186Z,103086.84
2018-12-25T01:02:07.444Z,103093.97
2018-12-25T01:04:35.762Z,103093.97
2018-12-25T01:07:04.075Z,103090.16
2018-12-25T01:09:32.378Z,103081.89
2018-12-25T01:12:00.624Z,103094.60
2018-12-25T01:14:28.909Z,103088.26
2018-12-25T01:16:57.313Z,103093.35
2018-12-25T01:19:25.560Z,103097.16
2018-12-25T01:21:53.818Z,103098.07
2018-12-25T01:24:22.091Z,103098.07
2018-12-25T01:26:50.340Z,103099.95
2018-12-25T01:29:18.656Z,103102.91
2018-12-25T01:31:46.923Z,103102.84
2018-12-25T01:34:15.212Z,103102.84
2018-12-25T01:36:43.491Z,103094.48
2018-12-25T01:39:11.735Z,103094.48
2018-12-25T01:41:40.178Z,103100.34
2018-12-25T01:44:08.420Z,103102.09
2018-12-25T01:46:36.666Z,103104.79
2018-12-25T01:49:04.968Z,103103.76
2018-12-25T01:51:33.212Z,103104.57
2018-12-25T01:54:01.514Z,103106.75
2018-12-25T01:56:30.162Z,103105.09
2018-12-25T01:58:58.472Z,103104.34
2018-12-25T02:01:26.719Z,103111.91
2018-12-25T02:03:54.972Z,103104.34
2018-12-25T02:06:23.257Z,103104.34
2018-12-25T02:08:51.548Z,103108.37
2018-12-25T02:11:19.801Z,103097.04
2018-12-25T02:13:48.046Z,103091.98
2018-12-25T02:16:16.327Z,103085.55
2018-12-25T02:18:44.577Z,103080.70
2018-12-25T02:21:12.884Z,103084.52
2018-12-25T02:23:41.153Z,103080.80
2018-12-25T02:26:09.391Z,103085.73
2018-12-25T02:28:37.713Z,103086.58
2018-12-25T02:31:06.234Z,103086.36
2018-12-25T02:33:34.506Z,103082.33
2018-12-25T02:36:02.757Z,103083.14
2018-12-25T02:38:31.054Z,103088.52
2018-12-25T02:40:59.378Z,103085.92
2018-12-25T02:43:27.674Z,103083.86
2018-12-25T02:45:55.944Z,103084.14
2018-12-25T02:48:24.250Z,103086.02
2018-12-25T02:50:52.622Z,103079.48
2018-12-25T02:53:20.944Z,103085.17
2018-12-25T02:55:49.207Z,103076.36
2018-12-25T02:58:17.478Z,103072.11
2018-12-25T03:00:46.667Z,103076.23
2018-12-25T03:03:15.043Z,103067.05
2018-12-25T03:05:43.295Z,103067.05
2018-12-25T03:08:11.647Z,103074.56
2018-12-25T03:10:39.938Z,103068.88
2018-12-25T03:13:08.194Z,103074.34
2018-12-25T03:15:36.438Z,103087.13
2018-12-25T03:18:04.765Z,103073.59
2018-12-25T03:20:33.048Z,103069.43
2018-12-25T03:23:04.285Z,103069.43
2018-12-25T03:25:33.348Z,103076.11
2018-12-25T03:28:01.590Z,103077.27
2018-12-25T03:30:29.968Z,103080.23
2018-12-25T03:32:58.559Z,103080.23
2018-12-25T03:35:26.849Z,103077.36
2018-12-25T03:37:55.297Z,103067.02
2018-12-25T03:40:23.573Z,103070.63
2018-12-25T03:42:51.861Z,103063.97
2018-12-25T03:45:20.202Z,103065.84
2018-12-25T03:47:48.478Z,103065.84
2018-12-25T03:50:16.785Z,103062.52
2018-12-25T03:52:45.029Z,103058.77
2018-12-25T03:55:13.282Z,103072.30
2018-12-25T03:57:41.559Z,103072.30
2018-12-25T04:00:09.822Z,103070.05
2018-12-25T04:02:38.152Z,103070.05
2018-12-25T04:05:06.397Z,103069.52
2018-12-25T04:07:34.705Z,103064.67
2018-12-25T04:10:02.965Z,103064.67
2018-12-25T04:12:31.217Z,103057.14
2018-12-25T04:14:59.562Z,103056.08
2018-12-25T04:17:27.810Z,103045.38
2018-12-25T04:19:56.056Z,103041.56
2018-12-25T04:22:24.332Z,103041.56
2018-12-25T04:24:52.581Z,103034.97
2018-12-25T04:27:22.532Z,103028.42
2018-12-25T04:29:51.021Z,103025.56
2018-12-25T04:32:19.258Z,103026.77
2018-12-25T04:34:47.535Z,103015.84
2018-12-25T04:37:15.841Z,103015.84
2018-12-25T04:39:44.117Z,103047.25
2018-12-25T04:42:12.371Z,103052.80
2018-12-25T04:44:40.672Z,103052.80
2018-12-25T04:47:09.109Z,103051.45
2018-12-25T04:49:37.382Z,103048.09
2018-12-25T04:52:05.718Z,103048.09
2018-12-25T04:54:34.030Z,103045.13
2018-12-25T04:57:02.324Z,103052.44
2018-12-25T04:59:30.607Z,103057.37
2018-12-25T05:01:58.844Z,103038.02
2018-12-25T05:04:27.121Z,103038.02
2018-12-25T05:06:55.391Z,103044.52
2018-12-25T05:09:23.764Z,103057.64
2018-12-25T05:11:52.006Z,103063.11
2018-12-25T05:14:20.282Z,103060.64
2018-12-25T05:16:48.529Z,103066.25
2018-12-25T05:19:16.829Z,103066.25
2018-12-25T05:21:45.118Z,103073.05
2018-12-25T05:24:13.417Z,103069.24
2018-12-25T05:26:41.686Z,103066.02
2018-12-25T05:29:10.135Z,103068.31
2018-12-25T05:31:38.391Z,103067.50
2018-12-25T05:34:06.654Z,103078.56
2018-12-25T05:36:35.736Z,103078.56
2018-12-25T05:39:05.029Z,103078.48
2018-12-25T05:41:33.925Z,103078.48
2018-12-25T05:44:02.202Z,103078.16
2018-12-25T05:46:30.441Z,103086.77
2018-12-25T05:48:58.718Z,103085.52
2018-12-25T05:51:27.016Z,103089.86
2018-12-25T05:53:55.591Z,103092.86
2018-12-25T05:56:24.644Z,103092.86
2018-12-25T05:58:53.061Z,103080.36
2018-12-25T06:01:21.879Z,103070.67
2018-12-25T06:03:50.135Z,103075.52
2018-12-25T06:06:18.430Z,103073.95
2018-12-25T06:08:46.687Z,103079.73
2018-12-25T06:11:14.935Z,103077.55
2018-12-25T06:13:43.251Z,103069.70
2018-12-25T06:16:11.504Z,103069.70
2018-12-25T06:18:39.760Z,103072.92
2018-12-25T06:21:08.431Z,103062.61
2018-12-25T06:23:36.677Z,103064.59
2018-12-25T06:26:04.989Z,103071.80
2018-12-25T06:28:33.311Z,103080.36
2018-12-25T06:31:01.552Z,103080.36
2018-12-25T06:33:29.936Z,103067.59
2018-12-25T06:35:58.194Z,103068.17
2018-12-25T06:38:26.481Z,103068.17
2018-12-25T06:40:54.862Z,103066.24
2018-12-25T06:43:23.121Z,103065.31
2018-12-25T06:45:51.368Z,103066.02
2018-12-25T06:48:19.641Z,103066.02
2018-12-25T06:50:47.894Z,103058.67
2018-12-25T06:53:16.272Z,103058.67
2018-12-25T06:55:44.521Z,103056.52
2018-12-25T06:58:12.777Z,103049.36
2018-12-25T07:00:41.168Z,103051.77
2018-12-25T07:03:09.412Z,103046.58
2018-12-25T07:05:37.652Z,103050.70
2018-12-25T07:08:06.036Z,103046.67
2018-12-25T07:10:34.321Z,103047.61
2018-12-25T07:13:02.576Z,103050.07
2018-12-25T07:15:33.196Z,103050.07
2018-12-25T07:18:00.970Z,103042.55
2018-12-25T07:20:29.309Z,103042.55
2018-12-25T07:22:57.558Z,103043.27
2018-12-25T07:25:25.845Z,103043.27
2018-12-25T07:27:54.168Z,103025.39
2018-12-25T07:30:22.408Z,103028.70
2018-12-25T07:32:50.707Z,103033.55
2018-12-25T07:35:18.956Z,103033.55
2018-12-25T07:37:47.225Z,103034.80
2018-12-25T07:40:15.732Z,103032.23
2018-12-25T07:42:43.987Z,103041.83
2018-12-25T07:45:12.295Z,103040.48
2018-12-25T07:47:41.211Z,103041.02
2018-12-25T07:50:09.503Z,103038.92
2018-12-25T07:52:37.765Z,103027.13
2018-12-25T07:55:06.072Z,103027.13
2018-12-25T07:57:34.345Z,103017.19
2018-12-25T08:00:02.664Z,103017.19
2018-12-25T08:02:31.018Z,103010.30
2018-12-25T08:04:59.258Z,103019.80
2018-12-25T08:07:27.508Z,103027.94
2018-12-25T08:09:55.812Z,103027.94
2018-12-25T08:12:24.072Z,103021.53
2018-12-25T08:14:52.329Z,103021.53
2018-12-25T08:17:20.605Z,103007.37
2018-12-25T08:19:49.424Z,103007.87
2018-12-25T08:22:17.665Z,102995.77
2018-12-25T08:24:45.941Z,102995.77
2018-12-25T08:27:14.234Z,102995.77
2018-12-25T08:29:42.575Z,102994.20
2018-12-25T08:32:10.816Z,102982.28
2018-12-25T08:34:39.060Z,102989.78
2018-12-25T08:37:07.387Z,103003.51
2018-12-25T08:39:35.646Z,103003.51
2018-12-25T08:42:04.048Z,103001.75
2018-12-25T08:44:32.297Z,103009.90
2018-12-25T08:47:02.617Z,103021.33
2018-12-25T08:49:30.580Z,103025.36
2018-12-25T08:51:58.953Z,103028.36
2018-12-25T08:54:27.251Z,103039.29
2018-12-25T08:56:55.537Z,103039.29
2018-12-25T08:59:23.767Z,103044.67
2018-12-25T09:01:52.102Z,103045.06
2018-12-25T09:04:20.417Z,103045.06
2018-12-25T09:06:48.649Z,103050.80
2018-12-25T09:09:17.031Z,103057.81
2018-12-25T09:11:45.332Z,103057.81
2018-12-25T09:14:13.716Z,103066.05
2018-12-25T09:16:42.022Z,103068.61
2018-12-25T09:19:11.041Z,103064.91
2018-12-25T09:21:46.161Z,103064.91
2018-12-25T09:24:09.289Z,103060.87
2018-12-25T09:26:37.705Z,103078.66
2018-12-25T09:29:05.962Z,103070.53
2018-12-25T09:31:34.240Z,103071.12
2018-12-25T09:34:02.574Z,103071.12
2018-12-25T09:36:30.819Z,103079.44
2018-12-25T09:38:59.115Z,103083.72
2018-12-25T09:41:27.413Z,103088.03
2018-12-25T09:43:55.664Z,103088.11
2018-12-25T09:46:24.072Z,103085.66
2018-12-25T09:48:52.324Z,103085.66
2018-12-25T09:51:20.626Z,103094.59
2018-12-25T09:53:48.972Z,103100.33
2018-12-25T09:56:17.231Z,103100.33
2018-12-25T09:58:45.497Z,103085.09
2018-12-25T10:01:13.777Z,103085.09
2018-12-25T10:03:42.074Z,103088.06
2018-12-25T10:06:10.409Z,103089.21
2018-12-25T10:08:38.658Z,103094.72
2018-12-25T10:11:06.910Z,103090.41
2018-12-25T10:13:35.443Z,103096.61
2018-12-25T10:16:03.698Z,103099.07
2018-12-25T10:18:31.942Z,103086.95
2018-12-25T10:21:00.249Z,103090.77
2018-12-25T10:23:28.548Z,103088.15
2018-12-25T10:25:56.836Z,103090.61
2018-12-25T10:28:25.087Z,103081.95
2018-12-25T10:30:53.332Z,103089.72
2018-12-25T10:33:21.739Z,103087.72
2018-12-25T10:35:49.987Z,103087.34
2018-12-25T10:38:18.241Z,103091.37
2018-12-25T10:40:46.553Z,103072.75
2018-12-25T10:43:14.807Z,103084.19
2018-12-25T10:45:43.050Z,103080.37
2018-12-25T10:48:11.318Z,103077.45
2018-12-25T10:50:40.730Z,103071.83
2018-12-25T10:53:09.590Z,103078.30
2018-12-25T10:55:37.838Z,103071.25
2018-12-25T10:58:06.267Z,103078.38
2018-12-25T11:00:37.895Z,103079.41
2018-12-25T11:03:06.143Z,103072.14
2018-12-25T11:05:34.445Z,103064.75
2018-12-25T11:08:02.701Z,103058.59
2018-12-25T11:10:30.955Z,103059.63
2018-12-25T11:12:59.223Z,103057.02
2018-12-25T11:15:27.482Z,103051.47
2018-12-25T11:17:55.795Z,103057.78
2018-12-25T11:20:24.433Z,103049.77
2018-12-25T11:22:52.689Z,103059.27
2018-12-25T11:25:21.285Z,103051.27
2018-12-25T11:27:49.632Z,103044.30
2018-12-25T11:30:17.871Z,103040.09
2018-12-25T11:32:46.171Z,103042.55
2018-12-25T11:35:14.472Z,103035.66
2018-12-25T11:37:42.743Z,103036.27
2018-12-25T11:40:11.013Z,103036.11
2018-12-25T11:42:39.264Z,103029.20
2018-12-25T11:45:07.538Z,103032.24
2018-12-25T11:47:35.911Z,103030.46
2018-12-25T11:50:07.411Z,103030.30
2018-12-25T11:52:35.664Z,103027.13
2018-12-25T11:55:04.100Z,103019.34
2018-12-25T11:57:32.350Z,103020.53
2018-12-25T12:00:00.651Z,103021.95
2018-12-25T12:02:28.940Z,103019.86
2018-12-25T12:04:57.222Z,103019.89
2018-12-25T12:07:25.485Z,103015.84
2018-12-25T12:09:53.760Z,103015.47
2018-12-25T12:12:22.014Z,103010.39
2018-12-25T12:14:50.337Z,103012.55
2018-12-25T12:17:18.632Z,103011.19
2018-12-25T12:19:46.878Z,103016.89
2018-12-25T12:22:15.148Z,103014.47
2018-12-25T12:24:43.563Z,103008.02
2018-12-25T12:27:12.714Z,103005.27
2018-12-25T12:29:40.974Z,103007.96
2018-12-25T12:32:09.410Z,103008.56
2018-12-25T12:34:37.654Z,103005.02
2018-12-25T12:37:05.906Z,103002.33
2018-12-25T12:39:34.178Z,102996.48
2018-12-25T12:42:02.578Z,102993.86
2018-12-25T12:44:31.255Z,102994.97
2018-12-25T12:46:59.563Z,102989.03
2018-12-25T12:49:27.883Z,102989.41
2018-12-25T12:51:56.153Z,102992.98
2018-12-25T12:54:24.457Z,102989.05
2018-12-25T12:56:52.707Z,102994.88
2018-12-25T12:59:20.959Z,102985.20
2018-12-25T13:01:49.321Z,102984.96
2018-12-25T13:04:17.558Z,102974.95
2018-12-25T13:06:45.967Z,102977.70
2018-12-25T13:09:14.211Z,102985.63
2018-12-25T13:11:42.528Z,102983.50
2018-12-25T13:14:10.949Z,102985.21
2018-12-25T13:16:39.242Z,102980.45
2018-12-25T13:19:07.485Z,102976.39
2018-12-25T13:21:35.867Z,102980.20
2018-12-25T13:24:04.180Z,102975.23
2018-12-25T13:26:32.480Z,102978.77
2018-12-25T13:29:00.790Z,102973.64
2018-12-25T13:31:29.004Z,102980.69
2018-12-25T13:33:57.363Z,102979.81
2018-12-25T13:36:25.601Z,102980.39
2018-12-25T13:38:53.858Z,102983.27
2018-12-25T13:41:22.168Z,102984.38
2018-12-25T13:43:50.466Z,102979.03
2018-12-25T13:46:18.916Z,102982.22
2018-12-25T13:48:47.161Z,102980.27
2018-12-25T13:51:15.434Z,102977.92
2018-12-25T13:53:43.730Z,102977.56
2018-12-25T13:56:11.991Z,102983.27
2018-12-25T13:58:40.242Z,102985.91
2018-12-25T14:01:08.529Z,102991.84
2018-12-25T14:03:36.794Z,102993.43
2018-12-25T14:06:05.124Z,102987.19
2018-12-25T14:08:33.429Z,102992.32
2018-12-25T14:11:01.700Z,102992.53
2018-12-25T14:13:29.988Z,102991.89
2018-12-25T14:15:58.287Z,103002.69
2018-12-25T14:18:26.567Z,102993.81
2018-12-25T14:20:54.811Z,102994.53
2018-12-25T14:23:23.463Z,102996.30
2018-12-25T14:25:52.384Z,102995.25
2018-12-25T14:28:20.682Z,102996.63
2018-12-25T14:30:48.951Z,102990.90
2018-12-25T14:33:17.269Z,102994.41
2018-12-25T14:35:45.522Z,102994.47
2018-12-25T14:38:13.804Z,102993.05
2018-12-25T14:40:42.119Z,102997.34
2018-12-25T14:43:10.376Z,102993.59
2018-12-25T14:45:38.645Z,102990.97
2018-12-25T14:48:07.042Z,102989.61
2018-12-25T14:50:35.297Z,102986.91
2018-12-25T14:53:03.552Z,102989.61
2018-12-25T14:55:31.820Z,102993.99
2018-12-25T14:58:00.099Z,102986.13
2018-12-25T15:00:28.444Z,102996.63
2018-12-25T15:02:56.732Z,102997.10
2018-12-25T15:05:24.975Z,102992.42
2018-12-25T15:07:53.246Z,102999.61
2018-12-25T15:10:21.556Z,102998.33
2018-12-25T15:12:49.816Z,102997.82
2018-12-25T15:15:18.111Z,102995.45
2018-12-25T15:17:46.494Z,102996.53
2018-12-25T15:20:14.779Z,103001.27
2018-12-25T15:22:43.046Z,102995.80
2018-12-25T15:25:11.318Z,102993.64
2018-12-25T15:27:39.654Z,102995.50
2018-12-25T15:30:07.927Z,102996.91
2018-12-25T15:32:36.241Z,102994.69
2018-12-25T15:35:07.821Z,102995.23
2018-12-25T15:37:36.071Z,102996.58
2018-12-25T15:40:05.478Z,102989.41
2018-12-25T15:42:33.883Z,102994.80
2018-12-25T15:45:02.172Z,102986.58
2018-12-25T15:47:30.422Z,102994.37
2018-12-25T15:49:58.690Z,102998.78
2018-12-25T15:52:26.993Z,102991.23
2018-12-25T15:54:55.300Z,102996.56
2018-12-25T15:57:23.548Z,102999.49
2018-12-25T15:59:51.844Z,103003.23
2018-12-25T16:02:20.161Z,103001.75
2018-12-25T16:04:48.419Z,103002.23
2018-12-25T16:07:17.391Z,103001.92
2018-12-25T16:09:45.638Z,102996.70
2018-12-25T16:12:14.199Z,103001.25
2018-12-25T16:14:42.479Z,103004.95
2018-12-25T16:17:10.825Z,103002.13
2018-12-25T16:19:39.029Z,103002.87
2018-12-25T16:22:07.283Z,103005.22
2018-12-25T16:24:35.590Z,102999.59
2018-12-25T16:27:03.883Z,103002.30
2018-12-25T16:29:32.148Z,102999.76
2018-12-25T16:32:00.402Z,103007.62
2018-12-25T16:34:28.707Z,103005.66
2018-12-25T16:36:56.952Z,103004.31
2018-12-25T16:39:25.224Z,103004.61
2018-12-25T16:41:53.480Z,103001.55
2018-12-25T16:44:21.865Z,103006.13
2018-12-25T16:46:50.119Z,103001.41
2018-12-25T16:49:18.413Z,103001.41
2018-12-25T16:51:46.706Z,103001.57
2018-12-25T16:54:15.137Z,103000.77
2018-12-25T16:56:43.379Z,102993.72
2018-12-25T16:59:11.668Z,102998.88
2018-12-25T17:01:39.917Z,102993.88
2018-12-25T17:04:08.204Z,102992.53
2018-12-25T17:06:36.496Z,102993.65
2018-12-25T17:09:06.087Z,102990.38
2018-12-25T17:11:34.379Z,102986.27
2018-12-25T17:14:02.759Z,102979.77
2018-12-25T17:16:31.347Z,102980.73
2018-12-25T17:18:59.623Z,102981.47
2018-12-25T17:21:27.947Z,102966.81
2018-12-25T17:24:02.166Z,102979.78
2018-12-25T17:26:26.375Z,102986.05
2018-12-25T17:28:54.994Z,102983.59
2018-12-25T17:31:23.375Z,102987.33
2018-12-25T17:33:51.623Z,102986.05
2018-12-25T17:36:19.880Z,102985.24
2018-12-25T17:38:48.232Z,102984.87
2018-12-25T17:41:16.487Z,102989.72
2018-12-25T17:43:44.787Z,102988.61
2018-12-25T17:46:13.226Z,102989.41
2018-12-25T17:48:41.478Z,102986.72
2018-12-25T17:51:09.745Z,102988.91
2018-12-25T17:53:38.062Z,102991.30
2018-12-25T17:56:06.321Z,102992.11
2018-12-25T17:58:34.730Z,102997.96
2018-12-25T18:01:03.147Z,102993.84
2018-12-25T18:03:31.404Z,102988.92
2018-12-25T18:05:59.689Z,102989.43
2018-12-25T18:08:28.445Z,102992.43
2018-12-25T18:10:56.698Z,102986.47
2018-12-25T18:13:25.848Z,102990.73
2018-12-25T18:15:54.149Z,102986.97
2018-12-25T18:18:22.425Z,102987.27
2018-12-25T18:20:50.707Z,102996.16
2018-12-25T18:23:19.010Z,102992.89
2018-12-25T18:25:47.275Z,102993.43
2018-12-25T18:28:15.527Z,102992.89
2018-12-25T18:30:43.932Z,102999.33
2018-12-25T18:33:12.178Z,102995.20
2018-12-25T18:35:40.632Z,102995.82
2018-12-25T18:38:09.198Z,102998.86
2018-12-25T18:40:37.451Z,102990.73
2018-12-25T18:43:07.365Z,102992.08
2018-12-25T18:45:35.679Z,102984.44
2018-12-25T18:48:03.974Z,102983.09
2018-12-25T18:50:33.663Z,102983.16
2018-12-25T18:53:02.023Z,102988.17
2018-12-25T18:55:30.334Z,102991.33
2018-12-25T18:57:58.631Z,102991.33
2018-12-25T19:00:26.962Z,102997.33
2018-12-25T19:02:55.265Z,102990.28
2018-12-25T19:05:23.555Z,102989.17
2018-12-25T19:07:51.970Z,102985.94
2018-12-25T19:10:20.235Z,102990.75
2018-12-25T19:12:48.494Z,102986.98
2018-12-25T19:15:21.604Z,102986.98
2018-12-25T19:17:51.445Z,102982.67
2018-12-25T19:20:19.710Z,102980.48
2018-12-25T19:22:48.322Z,102976.97
2018-12-25T19:25:16.600Z,102981.59
2018-12-25T19:27:45.520Z,102975.86
2018-12-25T19:30:20.038Z,102975.86
2018-12-25T19:32:48.329Z,102976.75
2018-12-25T19:35:16.613Z,102976.98
2018-12-25T19:37:44.918Z,102975.80
2018-12-25T19:40:13.197Z,102977.45
2018-12-25T19:42:41.507Z,102977.45
2018-12-25T19:45:09.786Z,102978.80
2018-12-25T19:47:38.101Z,102964.49
2018-12-25T19:50:06.878Z,102973.77
2018-12-25T19:52:35.174Z,102964.19
2018-12-25T19:55:03.455Z,102964.19
2018-12-25T19:57:31.815Z,102964.80
2018-12-25T20:00:00.094Z,102970.99
2018-12-25T20:02:28.524Z,102966.76
2018-12-25T20:05:03.030Z,102966.76
2018-12-25T20:07:37.529Z,102978.11
2018-12-25T20:10:26.580Z,102978.11
2018-12-25T20:13:17.729Z,102974.07
2018-12-25T20:16:20.914Z,102968.19
2018-12-25T20:18:55.593Z,102968.19
2018-12-25T20:21:49.730Z,102970.88
2018-12-25T20:24:21.271Z,102968.92
2018-12-25T20:27:21.617Z,102968.92
2018-12-25T20:29:55.144Z,102964.80
2018-12-25T20:32:29.394Z,102965.34
2018-12-25T20:35:09.575Z,102950.45
2018-12-25T20:37:59.035Z,102954.11
2018-12-25T20:40:47.280Z,102960.59
2018-12-25T20:43:24.403Z,102960.59
2018-12-25T20:46:22.714Z,102960.59
2018-12-25T20:49:24.743Z,102957.25
2018-12-25T20:52:08.047Z,102957.74
2018-12-25T20:54:42.252Z,102954.58
2018-12-25T20:57:19.396Z,102950.75
2018-12-25T21:00:03.146Z,102946.39
2018-12-25T21:02:58.991Z,102954.55
2018-12-25T21:05:30.514Z,102957.86
2018-12-25T21:08:02.035Z,102957.86
2018-12-25T21:10:39.363Z,102940.49
2018-12-25T21:13:44.162Z,102940.49
2018-12-25T21:16:38.340Z,102949.81
2018-12-25T21:19:15.871Z,102935.98
2018-12-25T21:21:59.746Z,102946.02
2018-12-25T21:25:09.779Z,102946.02
2018-12-25T21:27:33.710Z,102934.73
2018-12-25T21:30:03.711Z,102941.87
2018-12-25T21:32:32.706Z,102929.73
2018-12-25T21:35:07.231Z,102939.45
2018-12-25T21:37:35.574Z,102934.13
2018-12-25T21:40:06.253Z,102935.91
2018-12-25T21:42:34.664Z,102945.31
2018-12-25T21:45:03.263Z,102936.94
2018-12-25T21:47:31.715Z,102936.26
2018-12-25T21:49:59.973Z,102946.47
2018-12-25T21:52:28.337Z,102936.89
2018-12-25T21:54:56.780Z,102936.89
2018-12-25T21:57:25.034Z,102935.67
2018-12-25T21:59:53.516Z,102935.90
2018-12-25T22:02:21.834Z,102932.31
2018-12-25T22:04:50.086Z,102936.97
2018-12-25T22:07:18.347Z,102939.30
2018-12-25T22:09:46.637Z,102938.36
2018-12-25T22:12:15.087Z,102940.23
2018-12-25T22:14:43.346Z,102937.46
2018-12-25T22:17:11.598Z,102938.58
2018-12-25T22:19:39.908Z,102938.36
2018-12-25T22:22:08.174Z,102932.69
2018-12-25T22:24:36.427Z,102929.09
2018-12-25T22:27:04.874Z,102937.55
2018-12-25T22:29:33.486Z,102937.24
2018-12-25T22:32:01.728Z,102930.93
2018-12-25T22:34:30.160Z,102937.02
2018-12-25T22:36:58.416Z,102936.08
2018-12-25T22:39:29.441Z,102929.28
2018-12-25T22:41:58.687Z,102939.80
2018-12-25T22:44:27.004Z,102933.30
2018-12-25T22:46:55.271Z,102925.34
2018-12-25T22:49:23.554Z,102923.24
2018-12-25T22:51:51.857Z,102926.23
2018-12-25T22:54:20.101Z,102925.70
2018-12-25T22:56:48.458Z,102911.16
2018-12-25T22:59:16.708Z,102909.68
2018-12-25T23:01:44.969Z,102894.82
2018-12-25T23:04:13.317Z,102902.78
2018-12-25T23:06:41.590Z,102901.63
2018-12-25T23:09:10.718Z,102906.19
2018-12-25T23:11:39.131Z,102905.24
2018-12-25T23:14:07.435Z,102905.24
2018-12-25T23:16:35.858Z,102898.61
2018-12-25T23:19:04.129Z,102899.87
2018-12-25T23:21:32.390Z,102895.00
2018-12-25T23:24:00.685Z,102892.09
2018-12-25T23:26:28.959Z,102886.08
2018-12-25T23:28:57.413Z,102886.08
2018-12-25T23:31:25.638Z,102895.80
2018-12-25T23:33:53.933Z,102895.80
2018-12-25T23:36:22.211Z,102902.83
2018-12-25T23:38:50.474Z,102895.17
2018-12-25T23:41:18.843Z,102894.14
2018-12-25T23:43:47.106Z,102891.67
2018-12-25T23:46:15.397Z,102891.67
2018-12-25T23:48:43.654Z,102888.85
2018-12-25T23:51:12.066Z,102885.94
2018-12-25T23:53:40.392Z,102887.82
2018-12-25T23:56:08.647Z,102883.26
2018-12-25T23:58:36.927Z,102883.26
